Time;durP1;ratioP1;P1;durP2;ratioP2;P2;SDS_P1;SDS_P2;PMS_P1;PMS_P2;Temp;Humidity;BMP_temperature;BMP_pressure;BME280_temperature;BME280_humidity;BME280_pressure;Samples;Min_cycle;Max_cycle;Signal;HPM_P1;HPM_P2
2022/08/25 00:02:49;;;;;;;3.58;3.28;;;;;;;19.35;100.00;101474.16;20700985;28;20050;-74
2022/08/25 00:12:57;;;;;;;3.38;3.08;;;;;;;19.75;100.00;101537.38;20716956;28;20517;-75
2022/08/25 00:22:59;;;;;;;3.35;3.05;;;;;;;19.73;100.00;101539.34;20717372;28;20077;-75
2022/08/25 00:33:00;;;;;;;3.42;3.13;;;;;;;19.75;100.00;101550.03;20716858;28;20045;-75
2022/08/25 00:43:02;;;;;;;3.65;3.33;;;;;;;19.72;100.00;101551.13;20716611;28;20058;-75
2022/08/25 00:53:04;;;;;;;3.30;3.00;;;;;;;19.72;100.00;101551.13;20717182;28;20073;-75
2022/08/25 01:03:06;;;;;;;3.03;2.83;;;;;;;19.71;100.00;101549.44;20713302;28;20403;-75
2022/08/25 01:13:13;;;;;;;3.15;2.83;;;;;;;19.15;100.00;101461.50;20713808;28;20109;-75
2022/08/25 01:23:17;;;;;;;3.78;3.03;;;;;;;19.52;100.00;101529.41;20713413;28;20056;-75
2022/08/25 01:33:19;;;;;;;4.05;3.40;;;;;;;19.50;100.00;101514.31;20713785;28;20052;-75
2022/08/25 01:43:35;;;;;;;3.25;2.95;;;;;;;19.54;100.00;101522.03;20711927;28;20050;-75
2022/08/25 01:53:37;;;;;;;2.80;2.60;;;;;;;19.67;100.00;101538.06;20714133;28;20046;-75
2022/08/25 02:03:40;;;;;;;2.95;2.75;;;;;;;19.67;100.00;101534.47;20694645;28;20060;-75
2022/08/25 02:13:42;;;;;;;3.07;2.70;;;;;;;19.66;100.00;101535.47;20712482;28;20490;-75
2022/08/25 02:23:44;;;;;;;3.40;3.10;;;;;;;19.12;100.00;101449.16;20722578;28;20054;-75
2022/08/25 02:33:46;;;;;;;2.85;2.63;;;;;;;19.56;100.00;101530.00;20724856;28;20568;-75
2022/08/25 02:43:49;;;;;;;2.83;2.63;;;;;;;19.47;100.00;101501.97;20725462;28;20050;-75
2022/08/25 02:53:50;;;;;;;2.70;2.50;;;;;;;19.56;100.00;101520.06;20725107;28;20045;-75
2022/08/25 03:03:52;;;;;;;3.00;2.70;;;;;;;19.60;100.00;101517.09;20724484;28;20414;-75
2022/08/25 03:13:55;;;;;;;3.03;2.75;;;;;;;19.61;100.00;101526.91;20723303;28;20124;-75
2022/08/25 03:23:57;;;;;;;2.75;2.55;;;;;;;19.45;100.00;101498.53;20704166;28;20077;-75
2022/08/25 03:34:00;;;;;;;3.15;2.63;;;;;;;19.48;100.00;101494.69;20710541;28;20100;-75
2022/08/25 03:44:03;;;;;;;2.53;2.33;;;;;;;19.58;100.00;101501.00;20705476;28;20060;-75
2022/08/25 03:54:06;;;;;;;3.20;2.67;;;;;;;19.51;100.00;101489.91;20705686;28;20049;-75
2022/08/25 04:04:09;;;;;;;2.50;2.30;;;;;;;19.58;100.00;101489.38;20752713;28;20041;-75
2022/08/25 04:14:10;;;;;;;2.95;2.70;;;;;;;19.40;100.00;101466.53;20775877;28;20045;-75
2022/08/25 04:24:17;;;;;;;2.70;2.50;;;;;;;19.33;100.00;101464.47;20772980;28;20394;-75
2022/08/25 04:34:21;;;;;;;3.08;2.88;;;;;;;19.47;100.00;101474.09;20781250;28;20143;-75
2022/08/25 04:44:32;;;;;;;2.85;2.65;;;;;;;19.54;100.00;101477.97;20741699;28;20054;-75
2022/08/25 04:54:34;;;;;;;2.92;2.63;;;;;;;19.53;100.00;101474.41;20708782;28;20058;-75
2022/08/25 05:04:38;;;;;;;2.97;2.53;;;;;;;19.52;100.00;101474.53;20705281;28;20074;-74
2022/08/25 05:14:39;;;;;;;6.82;3.20;;;;;;;19.50;100.00;101472.00;20682814;28;20141;-75
2022/08/25 05:24:41;;;;;;;7.28;3.40;;;;;;;19.48;100.00;101462.28;20682090;28;20061;-75
2022/08/25 05:34:43;;;;;;;6.90;3.50;;;;;;;19.45;99.71;101476.94;20687429;28;20053;-75
2022/08/25 05:44:44;;;;;;;6.50;3.85;;;;;;;19.42;98.76;101474.47;20704322;28;20046;-75
2022/08/25 05:54:46;;;;;;;5.60;3.35;;;;;;;19.41;98.31;101472.75;20704102;28;20084;-75
2022/08/25 06:04:47;;;;;;;5.03;3.60;;;;;;;19.41;98.72;101489.84;20723279;28;20057;-75
2022/08/25 06:14:49;;;;;;;4.00;3.38;;;;;;;19.40;99.81;101477.31;20788559;28;20095;-75
2022/08/25 06:24:52;;;;;;;5.93;3.65;;;;;;;19.43;99.96;101481.59;20786341;28;20093;-75
2022/08/25 06:34:53;;;;;;;5.30;4.25;;;;;;;19.46;99.61;101480.47;20675648;28;20046;-75
2022/08/25 06:44:55;;;;;;;3.53;3.13;;;;;;;19.47;99.98;101482.19;20665182;28;20053;-77
2022/08/25 06:54:56;;;;;;;5.47;3.70;;;;;;;19.49;100.00;101483.78;20680081;28;20062;-73
2022/08/25 07:04:58;;;;;;;5.18;2.92;;;;;;;19.51;100.00;101495.31;20682845;28;20129;-75
2022/08/25 07:14:59;;;;;;;3.13;2.78;;;;;;;19.39;100.00;101458.53;20682797;28;20128;-75
2022/08/25 07:25:20;;;;;;;4.95;3.35;;;;;;;19.54;100.00;101478.84;20672338;28;20054;-74
2022/08/25 07:35:24;;;;;;;3.20;2.90;;;;;;;19.34;100.00;101439.19;20699163;28;20141;-74
2022/08/25 07:45:46;;;;;;;3.05;2.70;;;;;;;19.56;100.00;101490.34;20667706;28;20049;-75
2022/08/25 07:55:50;;;;;;;3.50;2.67;;;;;;;19.53;100.00;101471.72;20652655;28;20054;-74
2022/08/25 08:05:55;;;;;;;4.10;2.80;;;;;;;19.45;100.00;101458.03;20714135;28;20067;-74
2022/08/25 08:15:56;;;;;;;4.57;2.80;;;;;;;19.61;100.00;101483.69;20747099;28;20168;-74
2022/08/25 08:25:58;;;;;;;3.15;2.70;;;;;;;19.61;100.00;101481.00;20680468;28;20119;-74
2022/08/25 08:36:03;;;;;;;2.75;2.55;;;;;;;19.62;100.00;101458.41;20693768;28;20073;-74
2022/08/25 08:46:06;;;;;;;4.45;2.95;;;;;;;19.59;100.00;101431.66;20697050;28;20057;-74
2022/08/25 08:56:12;;;;;;;4.07;2.83;;;;;;;19.82;100.00;101448.53;20749719;28;20145;-74
2022/08/25 09:06:46;;;;;;;4.35;2.80;;;;;;;19.85;100.00;101442.88;20736506;28;20124;-74
2022/08/25 09:17:34;;;;;;;3.13;2.83;;;;;;;19.01;100.00;101293.56;20715098;28;20187;-74
2022/08/25 09:27:47;;;;;;;3.50;2.90;;;;;;;19.77;100.00;101408.41;20673373;28;20034;-74
2022/08/25 09:38:04;;;;;;;2.63;2.35;;;;;;;19.77;100.00;101384.09;20796959;28;20068;-73
2022/08/25 09:48:38;;;;;;;3.53;2.72;;;;;;;19.86;100.00;101385.13;20775256;28;20049;-74
2022/08/25 09:58:41;;;;;;;3.10;2.85;;;;;;;19.86;100.00;101372.47;20745032;28;20793;-74
2022/08/25 10:08:46;;;;;;;3.58;2.63;;;;;;;19.85;100.00;101370.75;20669135;28;20137;-74
2022/08/25 10:19:13;;;;;;;3.33;2.40;;;;;;;19.85;100.00;101357.25;20665739;28;20100;-74
2022/08/25 10:29:36;;;;;;;3.70;2.50;;;;;;;19.86;100.00;101337.34;20663670;28;20446;-75
2022/08/25 10:39:44;;;;;;;4.03;2.67;;;;;;;19.91;100.00;101333.41;20788131;28;20045;-74
2022/08/25 10:50:22;;;;;;;2.20;2.00;;;;;;;19.92;100.00;101321.63;20783950;28;20045;-74
2022/08/25 11:00:26;;;;;;;3.08;2.55;;;;;;;19.94;100.00;101320.47;20795023;28;20051;-74
2022/08/25 11:11:10;;;;;;;2.30;2.05;;;;;;;19.94;99.48;101303.41;20779645;28;20791;-74
2022/08/25 11:21:16;;;;;;;2.58;2.30;;;;;;;19.96;99.12;101298.72;20600703;28;20128;-74
2022/08/25 11:31:18;;;;;;;3.47;2.50;;;;;;;19.97;99.18;101286.91;20712399;28;20069;-74
2022/08/25 11:41:51;;;;;;;2.88;2.15;;;;;;;19.98;98.75;101275.13;20740749;28;20129;-74
2022/08/25 11:51:53;;;;;;;2.50;2.30;;;;;;;19.98;98.62;101269.72;20718838;28;20064;-74
2022/08/25 12:02:03;;;;;;;2.47;2.05;;;;;;;20.00;98.63;101262.31;20695737;28;20061;-74
2022/08/25 12:12:26;;;;;;;3.20;2.10;;;;;;;19.93;98.71;101239.56;20693426;28;20049;-74
2022/08/25 12:22:52;;;;;;;2.53;2.33;;;;;;;20.01;98.72;101253.22;20769450;28;20054;-74
2022/08/25 12:33:12;;;;;;;2.50;2.22;;;;;;;20.04;98.81;101252.06;20749111;28;20674;-74
2022/08/25 12:43:32;;;;;;;2.20;2.00;;;;;;;20.03;98.61;101243.09;20748062;28;20048;-74
2022/08/25 12:53:52;;;;;;;2.50;2.30;;;;;;;19.97;98.29;101225.59;20724656;28;20133;-74
2022/08/25 13:04:06;;;;;;;2.97;2.30;;;;;;;20.04;98.51;101230.44;20729313;28;20699;-73
2022/08/25 13:14:31;;;;;;;3.63;2.33;;;;;;;19.83;97.98;101180.06;20741293;28;20053;-74
2022/08/25 13:24:42;;;;;;;2.95;2.25;;;;;;;20.03;98.07;101197.16;20744626;28;20100;-75
2022/08/25 13:34:45;;;;;;;2.55;2.33;;;;;;;20.05;97.42;101189.78;20716843;28;20140;-73
2022/08/25 13:44:48;;;;;;;3.08;2.40;;;;;;;20.07;97.40;101182.38;20723119;28;20050;-73
2022/08/25 13:54:58;;;;;;;3.75;2.75;;;;;;;20.09;97.42;101185.78;20645682;28;20509;-73
2022/08/25 14:04:59;;;;;;;2.80;2.30;;;;;;;20.12;98.48;101169.28;20645111;28;20180;-75
2022/08/25 14:15:21;;;;;;;5.82;2.58;;;;;;;20.12;98.25;101163.88;20658183;28;20046;-73
2022/08/25 14:25:27;;;;;;;4.20;2.50;;;;;;;20.11;98.02;101145.09;20725236;28;20038;-73
2022/08/25 14:35:31;;;;;;;4.10;2.53;;;;;;;20.04;97.78;101131.31;20735263;28;20046;-73
2022/08/25 14:45:34;;;;;;;3.80;2.60;;;;;;;20.10;97.90;101121.75;20659071;28;20140;-72
2022/08/25 14:55:37;;;;;;;4.40;2.50;;;;;;;20.16;97.29;101125.72;20645697;28;20058;-73
2022/08/25 15:05:40;;;;;;;3.35;2.63;;;;;;;20.18;97.15;101123.72;20655475;28;20046;-73
2022/08/25 15:15:43;;;;;;;3.17;2.35;;;;;;;20.19;97.07;101120.03;20629622;28;20916;-73
2022/08/25 15:25:54;;;;;;;4.82;2.13;;;;;;;20.20;97.65;101110.91;20698637;28;20194;-72
2022/08/25 15:35:55;;;;;;;3.53;2.60;;;;;;;20.12;97.98;101093.59;20725389;28;20041;-74
2022/08/25 15:45:58;;;;;;;4.38;2.80;;;;;;;20.12;98.11;101082.78;20754517;28;20046;-73
2022/08/25 15:56:00;;;;;;;2.72;2.45;;;;;;;20.09;98.09;101088.47;20698682;28;20144;-73
2022/08/25 16:06:08;;;;;;;3.10;2.60;;;;;;;20.07;98.08;101085.06;20666029;28;20521;-74
2022/08/25 16:16:14;;;;;;;3.60;2.50;;;;;;;20.04;98.04;101088.06;20673759;28;20074;-74
2022/08/25 16:26:15;;;;;;;2.75;2.40;;;;;;;20.03;97.79;101072.00;20719375;28;20053;-74
2022/08/25 16:36:20;;;;;;;5.20;2.90;;;;;;;20.00;97.37;101068.59;20764901;28;20057;-72
2022/08/25 16:46:22;;;;;;;5.07;2.70;;;;;;;19.99;97.50;101063.34;20665831;28;20434;-73
2022/08/25 16:56:26;;;;;;;3.42;2.80;;;;;;;19.98;97.50;101061.63;20693030;28;20082;-73
2022/08/25 17:06:29;;;;;;;3.25;2.80;;;;;;;19.96;97.55;101058.22;20677223;28;20053;-73
2022/08/25 17:16:32;;;;;;;3.30;2.80;;;;;;;19.94;97.64;101052.13;20775113;28;20456;-73
2022/08/25 17:26:39;;;;;;;3.20;2.90;;;;;;;19.92;97.58;101060.34;20790094;28;20053;-73
2022/08/25 17:36:40;;;;;;;3.57;3.00;;;;;;;19.67;97.68;101013.19;20730743;28;20054;-73
2022/08/25 17:46:42;;;;;;;3.42;3.00;;;;;;;19.91;97.48;101060.53;20675547;28;20050;-73
2022/08/25 17:56:48;;;;;;;3.50;3.20;;;;;;;19.90;97.61;101061.50;20681402;28;20136;-73
2022/08/25 18:06:50;;;;;;;3.97;3.13;;;;;;;19.81;97.75;101052.41;20682740;28;21185;-73
2022/08/25 18:16:52;;;;;;;3.20;2.90;;;;;;;19.88;98.17;101079.66;20670848;28;20069;-73
2022/08/25 18:26:54;;;;;;;4.85;2.85;;;;;;;19.88;99.46;101075.13;20670596;28;20042;-74
2022/08/25 18:40:21;;;;;;;3.20;2.85;;;;;;;19.88;99.96;101085.06;20659935;28;20061;-73
2022/08/25 18:47:17;;;;;;;3.42;3.00;;;;;;;19.88;100.00;101079.66;20665237;28;20140;-73
2022/08/25 18:57:22;;;;;;;3.73;3.30;;;;;;;19.88;100.00;101087.78;20719724;28;20140;-73
2022/08/25 19:07:24;;;;;;;4.32;3.38;;;;;;;19.85;100.00;101084.38;20639052;28;20053;-73
2022/08/25 19:17:25;;;;;;;4.20;3.13;;;;;;;19.61;100.00;101048.88;20669586;28;20529;-74
2022/08/25 19:27:28;;;;;;;3.70;3.33;;;;;;;19.85;100.00;101087.06;20672986;28;20081;-74
2022/08/25 19:37:30;;;;;;;4.47;3.40;;;;;;;19.87;100.00;101089.63;20668352;28;20526;-73
2022/08/25 19:47:32;;;;;;;4.65;3.58;;;;;;;19.85;100.00;101089.75;20660235;28;20054;-73
2022/08/25 19:57:34;;;;;;;4.22;3.50;;;;;;;19.85;100.00;101092.47;20706967;28;20494;-73
2022/08/25 20:07:44;;;;;;;3.72;3.33;;;;;;;19.76;100.00;101087.94;20720068;28;20388;-73
2022/08/25 20:17:46;;;;;;;3.88;3.47;;;;;;;19.69;100.00;101067.91;20716357;28;20100;-73
2022/08/25 20:27:50;;;;;;;4.22;3.65;;;;;;;19.84;100.00;101089.94;20719230;28;20058;-74
2022/08/25 20:37:52;;;;;;;5.27;3.60;;;;;;;19.59;100.00;101054.41;20700764;28;20056;-73
2022/08/25 20:47:53;;;;;;;4.30;3.67;;;;;;;19.83;100.00;101093.63;20716757;28;20057;-73
2022/08/25 20:57:55;;;;;;;4.10;3.70;;;;;;;19.81;100.00;101093.75;20716944;28;20113;-73
2022/08/25 21:07:56;;;;;;;4.07;3.63;;;;;;;19.81;100.00;101090.22;20714296;28;20041;-73
2022/08/25 21:17:58;;;;;;;4.47;4.03;;;;;;;19.81;100.00;101098.31;20715672;28;20065;-73
2022/08/25 21:28:00;;;;;;;4.20;3.80;;;;;;;19.54;100.00;101062.09;20714513;28;20050;-74
2022/08/25 21:38:01;;;;;;;4.30;3.90;;;;;;;19.79;100.00;101101.16;20714200;28;20050;-74
2022/08/25 21:48:03;;;;;;;4.85;4.18;;;;;;;19.79;100.00;101098.44;20696390;28;20058;-74
2022/08/25 21:58:06;;;;;;;4.63;4.22;;;;;;;19.54;100.00;101046.75;20712589;28;20502;-74
2022/08/25 22:08:09;;;;;;;4.60;4.15;;;;;;;19.78;100.00;101079.69;20695968;28;20100;-73
2022/08/25 22:18:10;;;;;;;4.32;3.90;;;;;;;19.46;100.00;101034.97;20752894;28;20041;-73
2022/08/25 22:28:12;;;;;;;4.60;4.10;;;;;;;19.77;100.00;101084.25;20794094;28;20130;-73
2022/08/25 22:38:16;;;;;;;4.45;4.05;;;;;;;19.77;100.00;101099.59;20799387;28;20103;-74
2022/08/25 22:48:17;;;;;;;5.45;4.40;;;;;;;19.44;100.00;101056.69;20808208;28;20069;-74
2022/08/25 22:58:19;;;;;;;5.10;4.60;;;;;;;19.66;100.00;101097.91;20805583;28;20046;-73
2022/08/25 23:08:22;;;;;;;5.30;4.80;;;;;;;19.75;100.00;101134.84;20806236;28;20072;-75
2022/08/25 23:18:41;;;;;;;4.85;4.45;;;;;;;19.74;100.00;101135.00;20805706;28;20049;-73
2022/08/25 23:28:45;;;;;;;5.65;4.93;;;;;;;19.73;100.00;101123.34;20805111;28;20128;-73
2022/08/25 23:38:46;;;;;;;6.65;5.13;;;;;;;19.28;100.00;101046.47;20803313;28;20042;-73
2022/08/25 23:48:53;;;;;;;5.07;4.65;;;;;;;19.73;100.00;101111.69;20801399;28;20073;-73
2022/08/25 23:58:55;;;;;;;6.05;5.53;;;;;;;19.72;100.00;101113.53;20802535;28;20123;-74
